createdAt,value
2017-09-04T00:00:12.939Z,8.26
2017-09-04T00:02:41.291Z,8.28
2017-09-04T00:05:09.622Z,8.34
2017-09-04T00:07:37.982Z,8.42
2017-09-04T00:10:06.408Z,8.28
2017-09-04T00:12:34.795Z,8.46
2017-09-04T00:15:03.147Z,8.34
2017-09-04T00:17:31.571Z,8.36
2017-09-04T00:19:59.898Z,8.28
2017-09-04T00:22:28.459Z,8.46
2017-09-04T00:24:57.042Z,8.31
2017-09-04T00:27:25.366Z,8.36
2017-09-04T00:29:53.734Z,8.23
2017-09-04T00:32:22.132Z,8.52
2017-09-04T00:34:50.942Z,8.47
2017-09-04T00:37:19.270Z,8.34
2017-09-04T00:39:47.599Z,8.34
2017-09-04T00:42:15.951Z,8.37
2017-09-04T00:44:44.386Z,8.36
2017-09-04T00:47:12.751Z,8.23
2017-09-04T00:49:41.182Z,8.23
2017-09-04T00:52:09.511Z,8.20
2017-09-04T00:54:37.883Z,8.23
2017-09-04T00:57:06.251Z,8.40
2017-09-04T00:59:34.603Z,8.07
2017-09-04T01:02:03.087Z,7.90
2017-09-04T01:04:31.447Z,7.84
2017-09-04T01:06:59.802Z,8.11
2017-09-04T01:09:28.199Z,8.03
2017-09-04T01:11:56.562Z,7.85
2017-09-04T01:14:24.900Z,7.91
2017-09-04T01:16:53.267Z,8.24
2017-09-04T01:19:21.631Z,8.10
2017-09-04T01:21:49.964Z,7.87
2017-09-04T01:24:18.343Z,8.12
2017-09-04T01:26:46.764Z,8.14
2017-09-04T01:29:15.101Z,8.43
2017-09-04T01:31:43.466Z,7.99
2017-09-04T01:34:11.794Z,8.08
2017-09-04T01:36:40.127Z,8.14
2017-09-04T01:39:08.474Z,8.07
2017-09-04T01:41:36.803Z,8.02
2017-09-04T01:44:05.172Z,8.19
2017-09-04T01:46:33.543Z,7.97
2017-09-04T01:49:01.954Z,7.68
2017-09-04T01:51:30.342Z,7.64
2017-09-04T01:53:58.735Z,7.76
2017-09-04T01:56:27.132Z,7.80
2017-09-04T01:58:55.463Z,7.74
2017-09-04T02:01:23.823Z,7.83
2017-09-04T02:03:52.203Z,7.59
2017-09-04T02:06:20.539Z,7.46
2017-09-04T02:08:48.978Z,7.40
2017-09-04T02:11:17.334Z,7.21
2017-09-04T02:13:45.758Z,7.41
2017-09-04T02:16:14.119Z,7.69
2017-09-04T02:18:42.447Z,7.85
2017-09-04T02:21:10.848Z,7.73
2017-09-04T02:23:39.174Z,7.53
2017-09-04T02:26:07.552Z,7.73
2017-09-04T02:28:35.902Z,7.45
2017-09-04T02:31:04.261Z,7.31
2017-09-04T02:33:32.595Z,7.65
2017-09-04T02:36:00.986Z,7.48
2017-09-04T02:38:29.335Z,7.38
2017-09-04T02:40:57.763Z,7.68
2017-09-04T02:43:26.534Z,7.43
2017-09-04T02:45:54.916Z,7.65
2017-09-04T02:48:23.263Z,7.62
2017-09-04T02:50:51.628Z,7.54
2017-09-04T02:53:20.007Z,7.38
2017-09-04T02:55:48.334Z,7.33
2017-09-04T02:58:16.668Z,7.33
2017-09-04T03:00:45.014Z,7.14
2017-09-04T03:03:13.385Z,7.06
2017-09-04T03:05:41.715Z,7.24
2017-09-04T03:08:10.093Z,7.11
2017-09-04T03:10:38.419Z,7.07
2017-09-04T03:13:06.750Z,6.98
2017-09-04T03:15:35.144Z,7.02
2017-09-04T03:18:03.471Z,7.09
2017-09-04T03:20:31.948Z,7.01
2017-09-04T03:23:00.311Z,6.93
2017-09-04T03:25:28.707Z,6.92
2017-09-04T03:27:57.238Z,6.82
2017-09-04T03:30:25.618Z,7.00
2017-09-04T03:32:53.951Z,7.02
2017-09-04T03:35:22.376Z,6.96
2017-09-04T03:37:50.713Z,6.86
2017-09-04T03:40:19.075Z,6.92
2017-09-04T03:42:47.415Z,6.72
2017-09-04T03:45:15.864Z,6.74
2017-09-04T03:47:44.227Z,6.95
2017-09-04T03:50:12.570Z,6.81
2017-09-04T03:52:40.931Z,6.92
2017-09-04T03:55:09.276Z,7.06
2017-09-04T03:57:37.627Z,6.87
2017-09-04T04:00:06.147Z,7.13
2017-09-04T04:02:34.522Z,7.05
2017-09-04T04:05:02.902Z,7.03
2017-09-04T04:07:31.363Z,7.29
2017-09-04T04:09:59.877Z,7.27
2017-09-04T04:12:28.235Z,7.24
2017-09-04T04:14:56.646Z,7.26
2017-09-04T04:17:24.990Z,7.24
2017-09-04T04:19:53.366Z,7.12
2017-09-04T04:22:21.810Z,7.12
2017-09-04T04:24:50.199Z,7.31
2017-09-04T04:27:18.547Z,7.22
2017-09-04T04:29:47.008Z,7.13
2017-09-04T04:32:15.396Z,7.13
2017-09-04T04:34:43.739Z,6.89
2017-09-04T04:37:12.151Z,6.76
2017-09-04T04:39:40.547Z,6.84
2017-09-04T04:42:08.891Z,6.73
2017-09-04T04:44:37.331Z,6.65
2017-09-04T04:47:05.718Z,6.79
2017-09-04T04:49:34.063Z,6.89
2017-09-04T04:52:02.443Z,6.85
2017-09-04T04:54:30.810Z,6.67
2017-09-04T04:56:59.158Z,6.77
2017-09-04T04:59:27.595Z,6.77
2017-09-04T05:01:56.067Z,6.57
2017-09-04T05:04:24.443Z,6.53
2017-09-04T05:06:52.851Z,7.04
2017-09-04T05:09:21.373Z,7.08
2017-09-04T05:11:49.714Z,7.23
2017-09-04T05:14:18.130Z,6.93
2017-09-04T05:16:46.478Z,6.90
2017-09-04T05:19:14.855Z,6.89
2017-09-04T05:21:43.314Z,7.13
2017-09-04T05:24:11.655Z,7.18
2017-09-04T05:26:40.020Z,7.29
2017-09-04T05:29:08.377Z,7.29
2017-09-04T05:31:36.742Z,7.33
2017-09-04T05:34:05.114Z,7.44
2017-09-04T05:36:33.487Z,7.43
2017-09-04T05:39:01.916Z,7.70
2017-09-04T05:41:30.254Z,7.60
2017-09-04T05:43:58.635Z,7.82
2017-09-04T05:46:27.823Z,8.19
2017-09-04T05:48:56.161Z,8.24
2017-09-04T05:51:24.507Z,8.38
2017-09-04T05:53:52.860Z,8.52
2017-09-04T05:56:21.247Z,8.71
2017-09-04T05:58:49.683Z,8.93
2017-09-04T06:01:18.099Z,8.99
2017-09-04T06:03:46.436Z,9.21
2017-09-04T06:06:14.810Z,9.27
2017-09-04T06:08:43.159Z,9.37
2017-09-04T06:11:11.534Z,9.47
2017-09-04T06:13:39.875Z,9.71
2017-09-04T06:16:08.314Z,9.73
2017-09-04T06:18:36.703Z,10.12
2017-09-04T06:21:05.047Z,11.21
2017-09-04T06:23:33.518Z,12.95
2017-09-04T06:26:01.891Z,14.68
2017-09-04T06:28:30.279Z,15.05
2017-09-04T06:30:58.628Z,17.13
2017-09-04T06:33:27.054Z,18.15
2017-09-04T06:35:55.447Z,19.71
2017-09-04T06:38:23.823Z,20.17
2017-09-04T06:40:52.206Z,20.93
2017-09-04T06:43:20.627Z,21.77
2017-09-04T06:45:49.041Z,22.29
2017-09-04T06:48:17.383Z,22.84
2017-09-04T06:50:45.723Z,24.51
2017-09-04T06:53:14.286Z,24.47
2017-09-04T06:55:42.630Z,23.63
2017-09-04T06:58:11.067Z,23.61
2017-09-04T07:00:39.411Z,24.61
2017-09-04T07:03:08.258Z,23.74
2017-09-04T07:05:37.062Z,23.40
2017-09-04T07:08:05.451Z,25.97
2017-09-04T07:10:33.851Z,24.70
2017-09-04T07:13:02.391Z,24.72
2017-09-04T07:15:30.726Z,24.22
2017-09-04T07:17:59.070Z,23.90
2017-09-04T07:20:27.442Z,23.79
2017-09-04T07:22:56.054Z,23.53
2017-09-04T07:25:24.410Z,22.95
2017-09-04T07:27:52.758Z,23.23
2017-09-04T07:30:21.102Z,23.19
2017-09-04T07:32:49.574Z,23.09
2017-09-04T07:35:17.915Z,23.40
2017-09-04T07:37:46.286Z,23.48
2017-09-04T07:40:14.648Z,23.56
2017-09-04T07:42:43.035Z,23.82
2017-09-04T07:45:11.383Z,23.97
2017-09-04T07:47:39.790Z,23.99
2017-09-04T07:50:08.530Z,24.16
2017-09-04T07:52:36.921Z,24.46
2017-09-04T07:55:05.305Z,24.53
2017-09-04T07:57:33.669Z,24.74
2017-09-04T08:00:01.998Z,24.57
2017-09-04T08:02:30.360Z,25.40
2017-09-04T08:04:58.763Z,24.56
2017-09-04T08:07:27.102Z,24.96
2017-09-04T08:09:55.450Z,25.64
2017-09-04T08:12:23.839Z,25.32
2017-09-04T08:14:52.199Z,25.33
2017-09-04T08:17:20.630Z,25.59
2017-09-04T08:19:48.987Z,24.20
2017-09-04T08:22:17.334Z,22.07
2017-09-04T08:24:45.815Z,22.66
2017-09-04T08:27:14.190Z,23.42
2017-09-04T08:29:42.523Z,24.75
2017-09-04T08:32:10.866Z,25.61
2017-09-04T08:34:39.219Z,25.57
2017-09-04T08:37:07.642Z,25.80
2017-09-04T08:39:35.978Z,24.89
2017-09-04T08:42:04.335Z,22.72
2017-09-04T08:44:32.671Z,22.73
2017-09-04T08:47:01.211Z,24.13
2017-09-04T08:49:29.549Z,25.13
2017-09-04T08:51:57.990Z,24.70
2017-09-04T08:54:26.335Z,25.75
2017-09-04T08:56:54.772Z,25.70
2017-09-04T08:59:23.274Z,25.83
2017-09-04T09:01:51.662Z,25.83
2017-09-04T09:04:20.082Z,25.55
2017-09-04T09:06:48.431Z,25.91
2017-09-04T09:09:16.830Z,26.62
2017-09-04T09:11:45.560Z,26.02
2017-09-04T09:14:13.887Z,25.54
2017-09-04T09:16:42.323Z,23.93
2017-09-04T09:19:10.651Z,24.96
2017-09-04T09:21:38.978Z,25.94
2017-09-04T09:24:07.355Z,26.79
2017-09-04T09:26:35.695Z,24.33
2017-09-04T09:29:04.084Z,22.00
2017-09-04T09:31:32.435Z,21.34
2017-09-04T09:34:00.779Z,20.40
2017-09-04T09:36:29.116Z,20.16
2017-09-04T09:38:57.471Z,19.89
2017-09-04T09:41:25.927Z,19.36
2017-09-04T09:43:54.318Z,19.76
2017-09-04T09:46:22.711Z,19.74
2017-09-04T09:48:51.078Z,19.74
2017-09-04T09:51:19.420Z,19.00
2017-09-04T09:53:47.774Z,18.91
2017-09-04T09:56:16.124Z,18.81
2017-09-04T09:58:44.466Z,18.58
2017-09-04T10:01:12.831Z,18.48
2017-09-04T10:03:41.165Z,18.49
2017-09-04T10:06:09.856Z,18.47
2017-09-04T10:08:38.196Z,19.23
2017-09-04T10:11:06.559Z,22.46
2017-09-04T10:13:34.887Z,23.98
2017-09-04T10:16:03.252Z,25.00
2017-09-04T10:18:31.585Z,25.56
2017-09-04T10:20:59.943Z,26.48
2017-09-04T10:23:28.306Z,26.95
2017-09-04T10:25:56.669Z,25.98
2017-09-04T10:28:25.006Z,27.19
2017-09-04T10:30:53.367Z,27.50
2017-09-04T10:33:21.695Z,27.61
2017-09-04T10:35:50.059Z,25.09
2017-09-04T10:38:18.393Z,23.39
2017-09-04T10:40:46.762Z,22.05
2017-09-04T10:43:15.090Z,21.31
2017-09-04T10:45:43.426Z,20.66
2017-09-04T10:48:11.759Z,19.98
2017-09-04T10:50:40.260Z,20.25
2017-09-04T10:53:08.595Z,19.97
2017-09-04T10:55:36.927Z,20.59
2017-09-04T10:58:05.330Z,23.42
2017-09-04T11:00:33.711Z,24.85
2017-09-04T11:03:02.131Z,27.17
2017-09-04T11:05:30.462Z,26.89
2017-09-04T11:07:58.827Z,25.33
2017-09-04T11:10:27.170Z,23.89
2017-09-04T11:12:55.565Z,22.18
2017-09-04T11:15:25.439Z,21.85
2017-09-04T11:17:53.828Z,21.02
2017-09-04T11:20:22.399Z,20.20
2017-09-04T11:22:50.739Z,20.03
2017-09-04T11:25:19.090Z,19.93
2017-09-04T11:27:47.427Z,19.89
2017-09-04T11:30:15.758Z,20.12
2017-09-04T11:32:44.120Z,19.92
2017-09-04T11:35:12.472Z,19.87
2017-09-04T11:37:41.063Z,20.46
2017-09-04T11:40:09.395Z,22.01
2017-09-04T11:42:37.727Z,23.81
2017-09-04T11:45:06.071Z,25.82
2017-09-04T11:47:34.416Z,26.08
2017-09-04T11:50:02.893Z,27.43
2017-09-04T11:52:31.218Z,26.42
2017-09-04T11:54:59.591Z,26.23
2017-09-04T11:57:27.953Z,27.23
2017-09-04T11:59:56.286Z,27.77
2017-09-04T12:02:24.631Z,26.47
2017-09-04T12:04:52.995Z,26.15
2017-09-04T12:07:21.335Z,25.70
2017-09-04T12:09:49.719Z,24.85
2017-09-04T12:12:18.066Z,24.01
2017-09-04T12:14:46.398Z,22.38
2017-09-04T12:17:14.730Z,21.98
2017-09-04T12:19:43.069Z,21.67
2017-09-04T12:22:11.571Z,21.37
2017-09-04T12:24:39.911Z,21.45
2017-09-04T12:27:08.246Z,21.97
2017-09-04T12:29:36.579Z,21.85
2017-09-04T12:32:04.965Z,21.35
2017-09-04T12:34:33.314Z,22.11
2017-09-04T12:37:01.654Z,21.86
2017-09-04T12:39:30.024Z,22.08
2017-09-04T12:41:58.495Z,22.17
2017-09-04T12:44:26.860Z,22.18
2017-09-04T12:46:55.219Z,22.23
2017-09-04T12:49:23.555Z,21.80
2017-09-04T12:51:51.954Z,22.18
2017-09-04T12:54:20.303Z,22.12
2017-09-04T12:56:48.676Z,22.06
2017-09-04T12:59:17.007Z,21.75
2017-09-04T13:01:45.538Z,21.30
2017-09-04T13:04:14.620Z,21.24
2017-09-04T13:06:43.021Z,21.35
2017-09-04T13:09:11.407Z,21.48
2017-09-04T13:15:03.558Z,21.98
2017-09-04T13:20:40.442Z,21.34
2017-09-04T13:23:14.530Z,21.67
2017-09-04T13:25:48.650Z,21.86
2017-09-04T13:31:31.315Z,21.70
2017-09-04T13:34:05.234Z,21.37
2017-09-04T13:36:39.075Z,21.34
2017-09-04T13:39:13.120Z,21.59
2017-09-04T13:41:47.051Z,21.39
2017-09-04T13:44:21.154Z,21.42
2017-09-04T13:50:00.762Z,20.99
2017-09-04T13:55:44.575Z,20.64
2017-09-04T13:58:18.410Z,20.70
2017-09-04T14:00:52.355Z,20.84
2017-09-04T14:03:21.640Z,20.88
2017-09-04T14:05:55.485Z,21.25
2017-09-04T14:08:38.730Z,21.56
2017-09-04T14:14:15.780Z,21.36
2017-09-04T14:16:49.646Z,21.14
2017-09-04T14:19:18.010Z,21.23
2017-09-04T14:21:46.387Z,21.50
2017-09-04T14:24:14.715Z,21.03
2017-09-04T14:26:43.050Z,21.47
2017-09-04T14:29:11.470Z,21.05
2017-09-04T14:31:39.827Z,21.14
2017-09-04T14:34:08.166Z,21.18
2017-09-04T14:36:36.531Z,20.79
2017-09-04T14:39:04.863Z,20.79
2017-09-04T14:41:33.199Z,20.56
2017-09-04T14:47:00.496Z,20.52
2017-09-04T14:49:28.869Z,20.27
2017-09-04T14:51:57.279Z,20.46
2017-09-04T14:54:25.598Z,20.41
2017-09-04T14:56:53.975Z,20.25
2017-09-04T14:59:22.306Z,20.29
2017-09-04T15:01:50.670Z,20.30
2017-09-04T15:04:19.026Z,20.48
2017-09-04T15:06:47.390Z,20.61
2017-09-04T15:09:15.723Z,20.56
2017-09-04T15:11:44.087Z,20.44
2017-09-04T15:14:12.724Z,20.28
2017-09-04T15:16:41.115Z,20.28
2017-09-04T15:19:09.451Z,20.30
2017-09-04T15:21:37.795Z,20.14
2017-09-04T15:24:06.158Z,20.19
2017-09-04T15:26:34.511Z,20.09
2017-09-04T15:29:03.258Z,19.96
2017-09-04T15:31:31.587Z,20.14
2017-09-04T15:33:59.958Z,20.25
2017-09-04T15:36:28.299Z,20.32
2017-09-04T15:38:56.628Z,20.33
2017-09-04T15:41:24.987Z,20.23
2017-09-04T15:43:53.386Z,20.09
2017-09-04T15:46:21.718Z,20.12
2017-09-04T15:48:50.046Z,19.94
2017-09-04T15:51:18.382Z,19.82
2017-09-04T15:53:46.866Z,19.68
2017-09-04T15:56:15.198Z,19.38
2017-09-04T15:58:43.538Z,19.23
2017-09-04T16:01:11.894Z,19.21
2017-09-04T16:03:40.227Z,19.14
2017-09-04T16:06:11.033Z,19.18
2017-09-04T16:08:39.390Z,19.23
2017-09-04T16:11:07.748Z,19.10
2017-09-04T16:13:39.654Z,19.14
2017-09-04T16:16:08.695Z,19.28
2017-09-04T16:21:40.182Z,19.09
2017-09-04T16:27:16.518Z,19.01
2017-09-04T16:29:48.923Z,18.89
2017-09-04T16:32:19.696Z,18.94
2017-09-04T16:37:57.954Z,19.04
2017-09-04T16:40:26.283Z,18.93
2017-09-04T16:42:54.618Z,18.85
2017-09-04T16:48:45.439Z,18.77
2017-09-04T16:54:23.126Z,18.74
2017-09-04T16:57:06.371Z,18.69
2017-09-04T16:59:34.795Z,18.54
2017-09-04T17:02:03.271Z,18.34
2017-09-04T17:04:31.603Z,18.27
2017-09-04T17:06:59.940Z,18.24
2017-09-04T17:09:28.582Z,17.97
2017-09-04T17:11:56.941Z,17.86
2017-09-04T17:14:25.326Z,17.86
2017-09-04T17:16:53.666Z,17.65
2017-09-04T17:19:26.634Z,17.40
2017-09-04T17:22:12.129Z,17.27
2017-09-04T17:24:45.312Z,17.07
2017-09-04T17:27:13.674Z,16.79
2017-09-04T17:29:42.018Z,16.62
2017-09-04T17:32:10.380Z,16.55
2017-09-04T17:34:38.720Z,16.51
2017-09-04T17:37:07.057Z,16.34
2017-09-04T17:39:35.390Z,16.19
2017-09-04T17:42:03.744Z,15.85
2017-09-04T17:44:32.103Z,15.63
2017-09-04T17:47:00.458Z,15.59
2017-09-04T17:49:28.924Z,15.38
2017-09-04T17:51:57.275Z,15.38
2017-09-04T17:54:25.615Z,15.30
2017-09-04T17:56:53.942Z,15.17
2017-09-04T17:59:22.311Z,15.14
2017-09-04T18:01:50.710Z,15.14
2017-09-04T18:04:19.065Z,15.12
2017-09-04T18:06:47.401Z,15.03
2017-09-04T18:09:15.738Z,14.78
2017-09-04T18:11:44.115Z,14.63
2017-09-04T18:14:12.454Z,14.50
2017-09-04T18:16:40.791Z,14.31
2017-09-04T18:19:09.158Z,14.17
2017-09-04T18:21:37.498Z,14.25
2017-09-04T18:24:05.851Z,14.04
2017-09-04T18:26:34.234Z,13.87
2017-09-04T18:29:02.573Z,13.78
2017-09-04T18:31:30.922Z,13.77
2017-09-04T18:33:59.263Z,13.66
2017-09-04T18:36:27.627Z,13.67
2017-09-04T18:38:55.959Z,13.62
2017-09-04T18:41:24.323Z,13.60
2017-09-04T18:43:53.047Z,13.39
2017-09-04T18:46:21.378Z,13.23
2017-09-04T18:48:49.869Z,13.20
2017-09-04T18:51:18.195Z,13.11
2017-09-04T18:53:46.531Z,13.03
2017-09-04T18:56:14.902Z,13.03
2017-09-04T18:58:43.234Z,12.95
2017-09-04T19:01:11.579Z,12.90
2017-09-04T19:03:39.919Z,12.72
2017-09-04T19:06:08.286Z,12.63
2017-09-04T19:08:36.620Z,12.48
2017-09-04T19:11:05.014Z,12.48
2017-09-04T19:13:33.371Z,12.46
2017-09-04T19:16:02.058Z,12.47
2017-09-04T19:18:30.431Z,12.41
2017-09-04T19:20:58.767Z,12.53
2017-09-04T19:23:27.105Z,12.46
2017-09-04T19:25:55.434Z,12.37
2017-09-04T19:28:23.801Z,12.48
2017-09-04T19:30:52.174Z,12.54
2017-09-04T19:33:20.511Z,12.44
2017-09-04T19:35:48.878Z,12.37
2017-09-04T19:38:17.246Z,12.31
2017-09-04T19:40:45.586Z,12.39
2017-09-04T19:43:13.922Z,12.24
2017-09-04T19:45:42.258Z,12.17
2017-09-04T19:48:10.651Z,12.19
2017-09-04T19:50:39.030Z,12.16
2017-09-04T19:53:07.392Z,12.31
2017-09-04T19:55:35.753Z,12.13
2017-09-04T19:58:04.090Z,12.14
2017-09-04T20:00:32.460Z,12.05
2017-09-04T20:03:00.786Z,12.22
2017-09-04T20:05:29.125Z,12.25
2017-09-04T20:07:57.497Z,12.15
2017-09-04T20:10:25.827Z,12.03
2017-09-04T20:12:54.162Z,12.02
2017-09-04T20:15:22.524Z,12.02
2017-09-04T20:17:50.868Z,11.79
2017-09-04T20:20:19.223Z,11.75
2017-09-04T20:22:47.587Z,11.75
2017-09-04T20:25:15.936Z,11.76
2017-09-04T20:27:44.268Z,11.94
2017-09-04T20:30:12.683Z,11.85
2017-09-04T20:32:41.014Z,11.82
2017-09-04T20:35:09.484Z,11.65
2017-09-04T20:37:37.826Z,11.56
2017-09-04T20:40:06.182Z,11.54
2017-09-04T20:42:34.523Z,11.63
2017-09-04T20:45:02.957Z,11.67
2017-09-04T20:47:31.423Z,11.40
2017-09-04T20:49:59.754Z,11.27
2017-09-04T20:52:28.123Z,11.32
2017-09-04T20:54:56.454Z,11.32
2017-09-04T20:57:24.790Z,11.37
2017-09-04T20:59:53.129Z,11.38
2017-09-04T21:02:21.511Z,11.35
2017-09-04T21:04:49.851Z,11.21
2017-09-04T21:07:18.210Z,11.21
2017-09-04T21:09:46.578Z,11.46
2017-09-04T21:12:14.971Z,11.17
2017-09-04T21:14:43.335Z,11.18
2017-09-04T21:17:11.671Z,11.02
2017-09-04T21:19:40.015Z,10.91
2017-09-04T21:22:08.379Z,10.85
2017-09-04T21:24:36.728Z,10.78
2017-09-04T21:27:05.271Z,10.72
2017-09-04T21:29:33.611Z,10.76
2017-09-04T21:32:01.951Z,10.79
2017-09-04T21:34:31.054Z,10.84
2017-09-04T21:36:59.398Z,10.90
2017-09-04T21:39:27.775Z,10.87
2017-09-04T21:41:56.368Z,10.74
2017-09-04T21:44:25.071Z,10.62
2017-09-04T21:46:53.561Z,10.59
2017-09-04T21:49:21.943Z,10.50
2017-09-04T21:51:50.311Z,10.44
2017-09-04T21:54:19.439Z,10.33
2017-09-04T21:56:48.961Z,10.49
2017-09-04T21:59:18.358Z,10.47
2017-09-04T22:01:47.682Z,10.40
2017-09-04T22:04:16.638Z,10.41
2017-09-04T22:06:45.993Z,10.71
2017-09-04T22:09:15.341Z,10.69
2017-09-04T22:11:43.868Z,10.66
2017-09-04T22:14:13.207Z,10.63
2017-09-04T22:16:42.187Z,10.54
2017-09-04T22:19:11.639Z,10.56
2017-09-04T22:21:41.020Z,10.57
2017-09-04T22:24:10.432Z,10.50
2017-09-04T22:26:39.355Z,10.59
2017-09-04T22:29:08.299Z,10.63
2017-09-04T22:31:37.295Z,10.55
2017-09-04T22:34:06.254Z,10.51
2017-09-04T22:36:34.851Z,10.38
2017-09-04T22:39:04.608Z,10.43
2017-09-04T22:41:34.193Z,10.35
2017-09-04T22:44:03.150Z,10.42
2017-09-04T22:46:31.882Z,10.35
2017-09-04T22:49:00.861Z,10.47
2017-09-04T22:51:29.429Z,10.42
2017-09-04T22:53:58.252Z,10.41
2017-09-04T22:56:27.139Z,10.21
2017-09-04T22:59:06.687Z,10.17
2017-09-04T23:01:35.510Z,10.11
2017-09-04T23:04:04.133Z,10.07
2017-09-04T23:06:32.574Z,9.98
2017-09-04T23:09:02.011Z,10.00
2017-09-04T23:11:31.919Z,9.86
2017-09-04T23:14:01.255Z,9.83
2017-09-04T23:16:29.723Z,9.79
2017-09-04T23:18:59.055Z,9.81
2017-09-04T23:21:28.298Z,9.74
2017-09-04T23:23:56.964Z,9.95
2017-09-04T23:26:26.176Z,9.83
2017-09-04T23:28:55.646Z,9.93
2017-09-04T23:31:24.605Z,9.81
2017-09-04T23:33:53.508Z,9.92
2017-09-04T23:36:23.048Z,9.96
2017-09-04T23:38:52.477Z,9.85
2017-09-04T23:41:22.046Z,9.84
2017-09-04T23:43:51.068Z,9.64
2017-09-04T23:46:20.168Z,9.99
2017-09-04T23:48:49.378Z,10.21
2017-09-04T23:51:17.851Z,10.16
2017-09-04T23:53:46.712Z,10.16
2017-09-04T23:56:16.025Z,10.00
2017-09-04T23:58:45.412Z,10.05
